Artas, SD

6:30 AM CST on February 14, 2016 (GMT -0600)
APRSWXNET | | Change Station
CLOSE
Current Station
Personal Weather Station
Location: Eureka, SD
Elevation: 1882 ft
Nearby Weather Stations
Active Advisory: Winter Weather Advisory Active Notice: Local Storm Report

Elev 1882 ft 45.77 °N, 99.62 °W | Updated 24 minutes ago

Overcast
Overcast
14 °F
Feels Like 14 °F
N
0
Wind Variable Wind from SE
Gusts 0.0 mph

Today
High -- | Low -- °F
--% Chance of Precip.
Yesterday
High -- | Low -- °F
Precip. -- in
Pressure 29.79 in
Visibility 2.5 miles
Clouds Overcast 400 ft
Windchill 14 °F
Dew Point 12 °F
Humidity 91%
Rainfall in
Snow Depth Not available.
7:42 AM 6:03 PM
Waxing Crescent, 41% visible
METAR K7L2 141215Z AUTO 16005KT 2 1/2SM -SN OVC004 M09/M09 A2979 RMK AO2
Pressure 29.79 in
Visibility 2.5 miles
Clouds Overcast 400 ft
Windchill 14 °F
Dew Point 12 °F
Humidity 91%
Rainfall in
Snow Depth Not available.
7:42 AM 6:03 PM
Waxing Crescent, 41% visible
METAR K7L2 141215Z AUTO 16005KT 2 1/2SM -SN OVC004 M09/M09 A2979 RMK AO2

10-Day Weather Forecast

Almanac

Astronomy

Feb. 14, 2016 Rise Set
Actual Time
Civil Twilight
Nautical Twilight
Astronomical Twilight
Moon
Length of Visible Light
Length of Day
Tomorrow will be .
, % of the Moon is Illuminated

Today's Extremes

State Highs State Lows

Community

WunderPhotos

Upload Photos

1,892,771 photos uploaded!

WunderBlog® & News

Nearby

Air Quality

  Air Quality AQ Index Pollutant
Not available.

Snow Depth

Station Depth Elevation

Earthquake Activity

City Distance Mag. Time & Date
Minimum magnitude displayed is 2.5.

Coastal Water Temperatures

Place Temperature

Stations

Nearby Weather Stations

Station Location Temp. Windchill Dew Point Humidity Wind Precip. Elev Updated Type
                   

Watches & Warnings

Winter Weather Advisory
Issued: 3:34 AM CST Feb. 14, 2016 – National Weather Service

... Winter Weather Advisory now in effect until noon CST today...

The Winter Weather Advisory is now in effect until noon CST
today.

* Snow has ended but freezing drizzle is possible through the
morning.

* Plan on slippery Road conditions.

Precautionary/preparedness actions...

A Winter Weather Advisory means that periods of snow... sleet... or
freezing rain will cause travel difficulties. Be prepared for
slippery roads and limited visibilities... and use caution while
driving.